createdAt,value
2024-05-09T00:00:52.596Z,8.50
2024-05-09T00:04:56.646Z,8.50
2024-05-09T00:08:34.589Z,9.10
2024-05-09T00:12:11.068Z,8.80
2024-05-09T00:15:48.075Z,8.70
2024-05-09T00:19:28.227Z,8.70
2024-05-09T00:23:06.515Z,8.90
2024-05-09T00:26:39.350Z,8.10
2024-05-09T00:30:31.029Z,8.70
2024-05-09T00:34:01.171Z,8.00
2024-05-09T00:37:39.091Z,8.10
2024-05-09T00:41:17.130Z,6.90
2024-05-09T00:44:54.148Z,7.90
2024-05-09T00:48:32.938Z,8.50
2024-05-09T00:52:10.334Z,8.70
2024-05-09T00:55:46.425Z,8.30
2024-05-09T00:59:24.639Z,7.10
2024-05-09T01:03:03.039Z,5.80
2024-05-09T01:06:40.498Z,5.70
2024-05-09T01:10:21.279Z,5.80
2024-05-09T01:13:54.515Z,5.60
2024-05-09T01:17:32.689Z,5.90
2024-05-09T01:21:11.395Z,5.90
2024-05-09T01:24:48.635Z,5.80
2024-05-09T01:28:23.296Z,5.80
2024-05-09T01:32:07.311Z,6.30
2024-05-09T01:35:45.056Z,6.00
2024-05-09T01:39:21.146Z,7.30
2024-05-09T01:43:00.389Z,8.60
2024-05-09T01:46:38.088Z,7.70
2024-05-09T01:50:16.657Z,8.70
2024-05-09T01:53:49.910Z,9.20
2024-05-09T01:57:34.420Z,9.60
2024-05-09T02:01:10.784Z,9.70
2024-05-09T02:04:47.820Z,10.40
2024-05-09T02:08:32.117Z,10.20
2024-05-09T02:12:09.782Z,10.80
2024-05-09T02:15:44.449Z,10.10
2024-05-09T02:19:28.446Z,9.90
2024-05-09T02:23:06.218Z,10.60
2024-05-09T02:26:41.276Z,10.20
2024-05-09T02:30:30.013Z,10.10
2024-05-09T02:33:59.260Z,9.60
2024-05-09T02:37:33.670Z,9.70
2024-05-09T02:41:17.578Z,9.10
2024-05-09T02:44:51.998Z,9.10
2024-05-09T02:48:32.464Z,9.50
2024-05-09T02:52:19.614Z,9.90
2024-05-09T02:55:50.671Z,9.40
2024-05-09T02:59:35.187Z,10.10
2024-05-09T03:03:14.377Z,9.30
2024-05-09T03:06:46.614Z,10.20
2024-05-09T03:10:35.950Z,9.60
2024-05-09T03:14:05.318Z,9.40
2024-05-09T03:17:49.364Z,9.70
2024-05-09T03:21:26.845Z,9.20
2024-05-09T03:25:04.876Z,9.60
2024-05-09T03:28:44.916Z,9.50
2024-05-09T03:32:18.598Z,9.80
2024-05-09T03:35:56.623Z,9.30
2024-05-09T03:39:35.683Z,8.60
2024-05-09T03:43:12.854Z,10.00
2024-05-09T03:46:51.061Z,8.50
2024-05-09T03:50:33.661Z,8.80
2024-05-09T03:54:07.728Z,9.30
2024-05-09T03:57:42.562Z,8.70
2024-05-09T04:01:20.416Z,7.80
2024-05-09T04:04:57.891Z,6.80
2024-05-09T04:08:37.327Z,7.10
2024-05-09T04:12:15.627Z,7.30
2024-05-09T04:15:51.191Z,18.00
2024-05-09T04:19:30.588Z,7.50
2024-05-09T04:23:12.010Z,6.70
2024-05-09T04:26:45.726Z,6.50
2024-05-09T04:30:33.672Z,6.70
2024-05-09T04:33:59.747Z,6.90
2024-05-09T04:37:39.463Z,6.40
2024-05-09T04:41:17.251Z,6.20
2024-05-09T04:44:56.427Z,7.90
2024-05-09T04:48:30.550Z,6.90
2024-05-09T05:16:24.748Z,10.30
2024-05-09T05:19:17.561Z,6.40
2024-05-09T05:22:53.645Z,7.30
2024-05-09T05:26:34.033Z,6.20
2024-05-09T05:30:14.767Z,6.90
2024-05-09T05:33:48.757Z,6.50
2024-05-09T05:37:24.663Z,7.10
2024-05-09T05:41:02.345Z,7.10
2024-05-09T05:44:41.367Z,6.70
2024-05-09T05:48:18.402Z,6.80
2024-05-09T05:51:55.341Z,6.20
2024-05-09T05:55:34.516Z,7.60
2024-05-09T05:59:15.060Z,8.20
2024-05-09T06:02:48.556Z,7.50
2024-05-09T06:06:26.156Z,8.50
2024-05-09T06:10:07.256Z,6.10
2024-05-09T06:13:43.833Z,7.00
2024-05-09T06:17:19.418Z,8.30
2024-05-09T06:20:57.312Z,7.80
2024-05-09T06:24:42.845Z,6.50
2024-05-09T06:28:11.087Z,6.10
2024-05-09T06:31:54.404Z,6.40
2024-05-09T06:35:31.278Z,4.80
2024-05-09T06:39:10.098Z,4.50
2024-05-09T06:42:47.927Z,3.20
2024-05-09T06:46:25.221Z,3.10
2024-05-09T06:50:03.529Z,3.10
2024-05-09T06:53:40.762Z,3.00
2024-05-09T06:57:19.377Z,3.10
2024-05-09T07:00:55.006Z,2.80
2024-05-09T07:04:32.958Z,3.10
2024-05-09T07:08:12.116Z,2.60
2024-05-09T07:11:50.321Z,2.70
2024-05-09T07:15:27.407Z,2.80
2024-05-09T07:19:03.744Z,2.80
2024-05-09T07:22:41.837Z,3.00
2024-05-09T07:26:20.976Z,2.80
2024-05-09T07:29:58.354Z,2.80
2024-05-09T07:33:32.955Z,2.80
2024-05-09T07:37:15.506Z,3.00
2024-05-09T07:40:54.898Z,3.00
2024-05-09T07:44:31.647Z,2.70
2024-05-09T07:49:44.502Z,2.70
2024-05-09T07:53:21.717Z,2.50
2024-05-09T07:55:32.601Z,2.60
2024-05-09T07:59:05.911Z,2.80
2024-05-09T08:02:43.725Z,3.70
2024-05-09T08:06:37.546Z,2.20
2024-05-09T08:09:57.005Z,2.20
2024-05-09T08:13:44.673Z,2.30
2024-05-09T08:17:16.504Z,2.20
2024-05-09T08:20:48.428Z,2.10
2024-05-09T08:24:30.812Z,2.20
2024-05-09T08:28:06.964Z,2.20
2024-05-09T08:31:59.470Z,2.10
2024-05-09T08:35:29.088Z,2.10
2024-05-09T08:39:04.667Z,1.90
2024-05-09T08:42:52.572Z,2.10
2024-05-09T08:46:26.688Z,2.20
2024-05-09T08:50:03.147Z,1.80
2024-05-09T08:53:47.937Z,1.90
2024-05-09T08:57:25.767Z,1.90
2024-05-09T09:01:00.194Z,1.70
2024-05-09T09:04:37.920Z,1.70
2024-05-09T09:08:14.630Z,1.70
2024-05-09T09:22:15.712Z,5.20
2024-05-09T09:25:12.852Z,2.10
2024-05-09T09:28:44.907Z,1.80
2024-05-09T09:32:29.048Z,2.00
2024-05-09T09:35:54.535Z,2.30
2024-05-09T09:39:49.037Z,2.00
2024-05-09T09:43:19.448Z,2.70
2024-05-09T09:47:04.912Z,2.30
2024-05-09T09:50:41.200Z,1.80
2024-05-09T09:54:21.595Z,1.70
2024-05-09T09:57:46.490Z,2.20
2024-05-09T10:01:21.233Z,2.00
2024-05-09T10:05:12.546Z,2.10
2024-05-09T10:08:54.075Z,2.70
2024-05-09T10:12:22.948Z,2.20
2024-05-09T10:15:58.329Z,2.50
2024-05-09T10:19:48.867Z,2.30
2024-05-09T10:23:27.349Z,2.30
2024-05-09T10:27:04.008Z,2.50
2024-05-09T10:30:35.921Z,2.60
2024-05-09T10:34:17.495Z,2.70
2024-05-09T10:37:53.330Z,2.30
2024-05-09T10:41:23.825Z,2.40
2024-05-09T10:45:08.904Z,2.70
2024-05-09T10:48:41.333Z,2.30
2024-05-09T11:02:50.529Z,2.50
2024-05-09T11:05:42.754Z,2.50
2024-05-09T11:09:29.449Z,2.30
2024-05-09T11:12:59.316Z,3.70
2024-05-09T11:16:43.323Z,2.10
2024-05-09T11:20:37.327Z,2.00
2024-05-09T11:24:00.610Z,2.30
2024-05-09T11:27:27.928Z,2.40
2024-05-09T11:31:12.095Z,2.40
2024-05-09T11:34:49.217Z,2.20
2024-05-09T11:38:27.646Z,2.10
2024-05-09T11:42:00.696Z,3.70
2024-05-09T11:45:40.517Z,2.50
2024-05-09T11:49:27.154Z,2.80
2024-05-09T11:53:00.534Z,2.10
2024-05-09T11:56:32.414Z,2.20
2024-05-09T12:00:14.801Z,2.20
2024-05-09T12:03:45.605Z,2.40
2024-05-09T12:07:27.694Z,2.40
2024-05-09T12:11:05.288Z,3.00
2024-05-09T12:14:36.125Z,2.60
2024-05-09T12:18:28.177Z,2.70
2024-05-09T12:22:08.530Z,2.60
2024-05-09T12:25:35.768Z,2.70
2024-05-09T12:29:09.738Z,3.20
2024-05-09T12:33:11.852Z,2.30
2024-05-09T12:36:28.360Z,2.50
2024-05-09T12:40:18.568Z,2.50
2024-05-09T12:43:51.545Z,3.40
2024-05-09T12:47:26.215Z,3.00
2024-05-09T12:51:05.728Z,3.70
2024-05-09T12:54:45.506Z,3.70
2024-05-09T12:58:21.713Z,3.20
2024-05-09T13:01:59.561Z,2.60
2024-05-09T13:05:47.343Z,2.50
2024-05-09T13:09:13.896Z,3.00
2024-05-09T13:12:52.291Z,2.40
2024-05-09T13:16:30.815Z,2.70
2024-05-09T13:20:09.281Z,2.70
2024-05-09T13:34:10.819Z,2.90
2024-05-09T13:37:01.642Z,2.60
2024-05-09T13:40:39.903Z,2.70
2024-05-09T13:44:18.995Z,3.00
2024-05-09T13:47:56.753Z,2.80
2024-05-09T13:51:32.743Z,4.20
2024-05-09T13:55:12.063Z,3.10
2024-05-09T13:58:46.548Z,2.80
2024-05-09T14:02:32.275Z,2.80
2024-05-09T14:06:11.299Z,2.50
2024-05-09T14:09:46.982Z,2.00
2024-05-09T14:13:21.966Z,2.80
2024-05-09T14:16:59.894Z,2.00
2024-05-09T14:20:39.262Z,3.20
2024-05-09T14:24:15.151Z,2.50
2024-05-09T14:27:52.621Z,2.30
2024-05-09T14:31:30.564Z,2.40
2024-05-09T14:35:08.246Z,2.40
2024-05-09T14:38:46.015Z,2.70
2024-05-09T14:42:42.676Z,2.80
2024-05-09T14:46:01.726Z,2.20
2024-05-09T14:49:42.035Z,2.80
2024-05-09T14:53:17.223Z,2.30
2024-05-09T14:56:54.824Z,1.90
2024-05-09T15:00:35.947Z,2.80
2024-05-09T15:04:10.081Z,2.50
2024-05-09T15:07:49.400Z,4.20
2024-05-09T15:11:25.423Z,2.40
2024-05-09T15:15:03.999Z,2.80
2024-05-09T15:18:44.053Z,3.90
2024-05-09T15:22:20.339Z,4.70
2024-05-09T15:25:55.393Z,2.50
2024-05-09T15:29:32.196Z,2.70
2024-05-09T15:33:16.603Z,2.30
2024-05-09T15:36:52.375Z,3.40
2024-05-09T15:40:36.110Z,3.50
2024-05-09T15:44:20.438Z,3.10
2024-05-09T16:39:58.176Z,1.50
2024-05-09T16:42:48.449Z,1.80
2024-05-09T16:46:24.747Z,1.70
2024-05-09T16:50:10.694Z,2.00
2024-05-09T16:53:44.830Z,1.70
2024-05-09T16:57:20.579Z,2.20
2024-05-09T17:01:04.781Z,2.30
2024-05-09T17:04:46.532Z,2.10
2024-05-09T17:08:20.419Z,6.60
2024-05-09T17:12:20.778Z,6.20
2024-05-09T17:15:43.191Z,14.50
2024-05-09T17:19:20.039Z,7.20
2024-05-09T17:23:14.659Z,3.00
2024-05-09T18:32:18.146Z,3.90
2024-05-09T18:35:10.899Z,3.90
2024-05-09T18:38:52.034Z,2.70
2024-05-09T18:42:24.526Z,3.00
2024-05-09T18:46:03.945Z,3.30
2024-05-09T18:49:40.205Z,3.10
2024-05-09T18:53:19.453Z,3.00
2024-05-09T18:56:55.483Z,4.30
2024-05-09T19:00:37.081Z,6.70
2024-05-09T19:04:11.263Z,7.40
2024-05-09T19:07:50.431Z,8.50
2024-05-09T19:11:26.381Z,9.10
2024-05-09T19:15:04.447Z,11.10
2024-05-09T19:18:42.129Z,8.90
2024-05-09T19:22:22.087Z,7.00
2024-05-09T19:25:59.159Z,8.80
2024-05-09T19:29:35.466Z,12.10
2024-05-09T19:33:13.851Z,16.70
2024-05-09T19:37:01.274Z,15.50
2024-05-09T19:40:36.831Z,15.40
2024-05-09T19:44:11.852Z,13.50
2024-05-09T19:47:48.409Z,11.50
2024-05-09T19:51:33.122Z,11.60
2024-05-09T19:55:06.668Z,11.70
2024-05-09T19:58:49.283Z,15.90
2024-05-09T20:02:26.669Z,12.00
2024-05-09T20:06:06.230Z,13.40
2024-05-09T20:09:43.885Z,14.40
2024-05-09T20:13:18.383Z,14.30
2024-05-09T20:17:01.213Z,12.60
2024-05-09T20:20:40.341Z,13.20
2024-05-09T20:24:26.863Z,9.70
2024-05-09T20:28:01.493Z,7.50
2024-05-09T20:31:45.178Z,7.50
2024-05-09T20:35:19.619Z,7.60
2024-05-09T20:39:03.274Z,9.50
2024-05-09T20:42:43.952Z,10.10
2024-05-09T20:46:17.619Z,10.80
2024-05-09T20:49:55.211Z,11.60
2024-05-09T20:53:34.374Z,9.90
2024-05-09T20:57:12.103Z,10.50
2024-05-09T21:00:46.658Z,10.30
2024-05-09T21:04:31.855Z,9.80
2024-05-09T21:08:09.030Z,9.70
2024-05-09T21:11:47.370Z,9.30
2024-05-09T21:15:20.636Z,9.50
2024-05-09T21:19:09.090Z,9.60
2024-05-09T21:22:38.615Z,11.00
2024-05-09T21:26:23.690Z,10.60
2024-05-09T21:29:59.932Z,10.80
2024-05-09T21:33:38.011Z,10.30
2024-05-09T21:37:12.329Z,9.60
2024-05-09T21:40:56.915Z,9.30
2024-05-09T21:44:34.008Z,8.70
2024-05-09T21:48:09.013Z,8.80
2024-05-09T21:51:52.937Z,9.00
2024-05-09T21:55:30.524Z,8.70
2024-05-09T21:59:04.573Z,8.40
2024-05-09T22:02:47.017Z,8.90
2024-05-09T22:06:22.434Z,9.20
2024-05-09T22:10:06.401Z,9.00
2024-05-09T22:13:40.394Z,9.30
2024-05-09T22:17:24.362Z,9.20
2024-05-09T22:21:01.892Z,9.00
2024-05-09T22:24:38.194Z,9.10
2024-05-09T22:28:16.131Z,9.40
2024-05-09T22:31:55.507Z,8.40
2024-05-09T22:35:37.857Z,8.50
2024-05-09T22:39:19.115Z,9.00
2024-05-09T22:42:45.075Z,8.80
2024-05-09T22:46:25.662Z,8.10
2024-05-09T22:50:12.851Z,8.10
2024-05-09T22:53:47.459Z,8.00
2024-05-09T22:57:25.054Z,7.30
2024-05-09T23:00:59.432Z,7.70
2024-05-09T23:04:43.250Z,7.00
2024-05-09T23:08:21.630Z,7.10
2024-05-09T23:11:57.311Z,9.20
2024-05-09T23:15:33.036Z,8.10
2024-05-09T23:19:17.138Z,8.00
2024-05-09T23:22:54.615Z,8.70
2024-05-09T23:26:28.689Z,8.10
2024-05-09T23:30:12.600Z,7.50
2024-05-09T23:33:50.549Z,7.10
2024-05-09T23:37:28.466Z,7.00
2024-05-09T23:41:02.235Z,7.00
2024-05-09T23:44:46.273Z,6.80
2024-05-09T23:48:22.561Z,6.70
2024-05-09T23:52:01.363Z,7.70
2024-05-09T23:55:39.775Z,6.40
2024-05-09T23:59:17.122Z,6.90
